createdAt,value
2019-02-19T00:01:07.616Z,103.33
2019-02-19T00:03:36.466Z,98.47
2019-02-19T00:06:08.838Z,106.60
2019-02-19T00:08:40.272Z,98.10
2019-02-19T00:11:11.356Z,96.77
2019-02-19T00:13:44.330Z,105.73
2019-02-19T00:16:16.829Z,101.63
2019-02-19T00:18:47.910Z,90.33
2019-02-19T00:21:20.428Z,102.40
2019-02-19T00:23:52.496Z,104.10
2019-02-19T00:26:26.087Z,101.73
2019-02-19T00:28:57.605Z,101.87
2019-02-19T00:31:28.725Z,94.57
2019-02-19T00:33:59.944Z,91.80
2019-02-19T00:36:31.065Z,98.83
2019-02-19T00:39:02.138Z,89.87
2019-02-19T00:41:35.129Z,98.20
2019-02-19T00:44:06.943Z,89.33
2019-02-19T00:46:40.691Z,125.27
2019-02-19T00:49:14.588Z,127.57
2019-02-19T00:51:48.017Z,124.93
2019-02-19T00:54:19.216Z,122.97
2019-02-19T00:56:52.254Z,113.97
2019-02-19T00:59:25.558Z,111.40
2019-02-19T01:01:57.754Z,124.80
2019-02-19T01:04:31.143Z,114.77
2019-02-19T01:07:02.338Z,103.67
2019-02-19T01:09:35.762Z,110.17
2019-02-19T01:12:07.793Z,119.93
2019-02-19T01:14:39.593Z,107.63
2019-02-19T01:17:11.961Z,110.67
2019-02-19T01:19:46.730Z,113.30
2019-02-19T01:22:20.254Z,118.93
2019-02-19T01:24:51.429Z,111.90
2019-02-19T01:27:23.003Z,116.97
2019-02-19T01:29:54.084Z,121.73
2019-02-19T01:32:25.167Z,116.13
2019-02-19T01:34:56.879Z,119.87
2019-02-19T01:37:29.727Z,118.70
2019-02-19T01:40:01.048Z,115.53
2019-02-19T01:42:32.129Z,123.93
2019-02-19T01:45:03.267Z,118.97
2019-02-19T01:47:35.966Z,67.13
2019-02-19T01:50:09.438Z,70.67
2019-02-19T01:52:41.366Z,70.37
2019-02-19T01:55:12.988Z,72.03
2019-02-19T01:57:45.713Z,86.87
2019-02-19T02:00:16.894Z,80.87
2019-02-19T02:02:48.686Z,71.10
2019-02-19T02:05:23.698Z,78.03
2019-02-19T02:07:56.187Z,77.93
2019-02-19T02:10:28.870Z,75.97
2019-02-19T02:12:59.941Z,73.53
2019-02-19T02:15:32.302Z,80.67
2019-02-19T02:18:03.362Z,73.57
2019-02-19T02:20:35.507Z,79.23
2019-02-19T02:23:08.732Z,81.53
2019-02-19T02:25:40.744Z,74.77
2019-02-19T02:28:12.069Z,82.47
2019-02-19T02:30:46.384Z,72.93
2019-02-19T02:33:17.479Z,67.53
2019-02-19T02:35:49.323Z,73.53
2019-02-19T02:38:21.487Z,73.77
2019-02-19T02:40:55.046Z,72.93
2019-02-19T02:43:26.984Z,69.10
2019-02-19T02:45:58.382Z,73.17
2019-02-19T02:48:30.262Z,71.70
2019-02-19T02:51:01.432Z,71.57
2019-02-19T02:53:33.697Z,69.57
2019-02-19T02:56:05.796Z,71.60
2019-02-19T02:58:38.355Z,78.97
2019-02-19T03:01:10.306Z,71.23
2019-02-19T03:03:42.212Z,69.53
2019-02-19T03:06:22.162Z,63.53
2019-02-19T03:08:54.256Z,65.40
2019-02-19T03:11:26.209Z,65.80
2019-02-19T03:13:59.690Z,59.30
2019-02-19T03:16:31.060Z,58.27
2019-02-19T03:19:03.554Z,61.10
2019-02-19T03:21:35.944Z,65.23
2019-02-19T03:24:07.491Z,64.70
2019-02-19T03:26:38.827Z,67.60
2019-02-19T03:29:10.557Z,68.90
2019-02-19T03:31:43.547Z,75.90
2019-02-19T03:34:15.128Z,66.97
2019-02-19T03:36:46.207Z,71.47
2019-02-19T03:39:19.204Z,71.07
2019-02-19T03:41:52.201Z,63.50
2019-02-19T03:44:23.286Z,66.33
2019-02-19T03:46:54.374Z,67.97
2019-02-19T03:49:25.786Z,65.40
2019-02-19T03:51:57.323Z,66.67
2019-02-19T03:54:28.434Z,62.00
2019-02-19T03:56:59.911Z,66.73
2019-02-19T03:59:32.045Z,60.73
2019-02-19T04:02:04.177Z,59.47
2019-02-19T04:04:37.280Z,75.27
2019-02-19T04:07:11.181Z,80.33
2019-02-19T04:09:41.737Z,94.33
2019-02-19T04:12:15.543Z,84.60
2019-02-19T04:14:48.619Z,108.30
2019-02-19T04:17:20.417Z,99.33
2019-02-19T04:19:51.504Z,95.13
2019-02-19T04:22:24.451Z,89.63
2019-02-19T04:24:57.084Z,94.87
2019-02-19T04:27:28.166Z,100.63
2019-02-19T04:29:59.605Z,98.30
2019-02-19T04:32:32.128Z,98.97
2019-02-19T04:35:04.514Z,106.47
2019-02-19T04:37:35.902Z,109.27
2019-02-19T04:40:07.224Z,104.47
2019-02-19T04:42:39.040Z,99.83
2019-02-19T04:45:11.116Z,110.50
2019-02-19T04:47:44.016Z,96.20
2019-02-19T04:50:15.066Z,96.97
2019-02-19T04:52:46.989Z,95.67
2019-02-19T04:55:20.857Z,96.67
2019-02-19T04:57:52.552Z,94.90
2019-02-19T05:00:25.191Z,99.80
2019-02-19T05:02:56.338Z,157.23
2019-02-19T05:05:28.957Z,160.23
2019-02-19T05:08:01.725Z,181.27
2019-02-19T05:10:34.081Z,241.00
2019-02-19T05:13:07.082Z,318.10
2019-02-19T05:15:38.177Z,321.33
2019-02-19T05:18:09.363Z,343.13
2019-02-19T05:20:40.953Z,357.10
2019-02-19T05:23:12.947Z,323.33
2019-02-19T05:25:44.766Z,317.33
2019-02-19T05:28:17.569Z,297.03
2019-02-19T05:30:53.190Z,299.10
2019-02-19T05:33:24.304Z,299.57
2019-02-19T05:35:56.734Z,287.20
2019-02-19T05:38:30.890Z,275.83
2019-02-19T05:41:01.986Z,252.17
2019-02-19T05:43:35.051Z,240.43
2019-02-19T05:46:07.808Z,234.33
2019-02-19T05:48:39.269Z,237.43
2019-02-19T05:51:10.420Z,240.67
2019-02-19T05:53:44.810Z,216.27
2019-02-19T05:56:15.355Z,126.33
2019-02-19T05:58:48.179Z,139.13
2019-02-19T06:01:19.323Z,128.20
2019-02-19T06:04:02.719Z,144.83
2019-02-19T06:06:33.857Z,134.00
2019-02-19T06:09:07.019Z,135.83
2019-02-19T06:11:38.242Z,137.50
2019-02-19T06:14:12.069Z,138.53
2019-02-19T06:16:47.493Z,127.23
2019-02-19T06:19:18.644Z,129.30
2019-02-19T06:21:51.178Z,127.13
2019-02-19T06:24:24.024Z,148.40
2019-02-19T06:26:55.092Z,148.73
2019-02-19T06:29:27.838Z,141.17
2019-02-19T06:32:01.131Z,138.87
2019-02-19T06:34:35.796Z,124.43
2019-02-19T06:37:08.244Z,122.47
2019-02-19T06:39:39.498Z,120.37
2019-02-19T06:42:12.033Z,119.23
2019-02-19T06:44:45.833Z,117.13
2019-02-19T06:47:18.097Z,115.67
2019-02-19T06:49:50.257Z,115.37
2019-02-19T06:52:22.270Z,129.33
2019-02-19T06:54:53.682Z,148.27
2019-02-19T06:57:25.307Z,141.87
2019-02-19T06:59:57.127Z,153.70
2019-02-19T07:02:45.630Z,183.43
2019-02-19T07:05:23.055Z,178.33
2019-02-19T07:07:55.226Z,222.23
2019-02-19T07:10:26.784Z,213.60
2019-02-19T07:12:59.078Z,217.30
2019-02-19T07:15:31.290Z,234.83
2019-02-19T07:18:02.652Z,225.77
2019-02-19T07:20:35.750Z,211.17
2019-02-19T07:23:08.831Z,201.87
2019-02-19T07:25:42.050Z,208.87
2019-02-19T07:28:13.230Z,227.80
2019-02-19T07:30:44.358Z,227.40
2019-02-19T07:33:15.448Z,196.13
2019-02-19T07:35:47.198Z,188.97
2019-02-19T07:38:21.235Z,178.37
2019-02-19T07:40:53.391Z,143.53
2019-02-19T07:43:25.371Z,169.13
2019-02-19T07:45:58.955Z,156.90
2019-02-19T07:48:30.049Z,151.70
2019-02-19T07:51:01.555Z,148.17
2019-02-19T07:53:32.708Z,130.30
2019-02-19T07:56:05.426Z,148.20
2019-02-19T07:58:36.564Z,145.03
2019-02-19T08:01:07.686Z,140.93
2019-02-19T08:03:41.285Z,133.93
2019-02-19T08:06:14.204Z,130.53
2019-02-19T08:08:46.925Z,126.23
2019-02-19T08:11:19.506Z,140.50
2019-02-19T08:13:50.803Z,144.37
2019-02-19T08:16:23.228Z,171.93
2019-02-19T08:18:55.255Z,154.03
2019-02-19T08:21:26.994Z,166.17
2019-02-19T08:23:58.852Z,171.53
2019-02-19T08:26:30.207Z,184.20
2019-02-19T08:29:11.419Z,158.23
2019-02-19T08:31:34.166Z,172.20
2019-02-19T08:34:05.321Z,198.60
2019-02-19T08:36:38.512Z,206.00
2019-02-19T08:39:11.163Z,214.20
2019-02-19T08:41:44.163Z,292.40
2019-02-19T08:44:16.515Z,255.00
2019-02-19T08:46:47.994Z,297.73
2019-02-19T08:49:19.267Z,306.90
2019-02-19T08:51:56.090Z,306.83
2019-02-19T08:54:24.249Z,288.20
2019-02-19T08:56:59.539Z,311.23
2019-02-19T08:59:29.807Z,299.87
2019-02-19T09:02:00.958Z,318.20
2019-02-19T09:04:41.351Z,300.93
2019-02-19T09:07:14.252Z,326.10
2019-02-19T09:09:47.153Z,332.17
2019-02-19T09:12:20.808Z,339.20
2019-02-19T09:14:52.786Z,332.20
2019-02-19T09:17:25.302Z,318.07
2019-02-19T09:19:57.501Z,313.03
2019-02-19T09:22:29.366Z,304.50
2019-02-19T09:25:00.438Z,257.00
2019-02-19T09:27:35.485Z,288.30
2019-02-19T09:30:09.124Z,273.93
2019-02-19T09:32:40.247Z,258.27
2019-02-19T09:35:11.746Z,326.07
2019-02-19T09:37:42.953Z,298.57
2019-02-19T09:40:14.049Z,105.17
2019-02-19T09:42:45.122Z,92.87
2019-02-19T09:45:17.387Z,123.10
2019-02-19T09:47:48.502Z,102.13
2019-02-19T09:50:20.470Z,109.77
2019-02-19T09:52:59.756Z,179.47
2019-02-19T09:55:24.371Z,119.00
2019-02-19T09:57:56.399Z,105.90
2019-02-19T10:00:29.219Z,123.67
2019-02-19T10:03:01.798Z,156.00
2019-02-19T10:05:32.876Z,152.13
2019-02-19T10:08:05.444Z,180.83
2019-02-19T10:10:37.219Z,151.87
2019-02-19T10:13:08.656Z,146.50
2019-02-19T10:15:41.601Z,142.63
2019-02-19T10:18:12.770Z,130.67
2019-02-19T10:20:44.550Z,142.50
2019-02-19T10:23:16.514Z,135.90
2019-02-19T10:25:48.561Z,133.77
2019-02-19T10:28:20.887Z,135.60
2019-02-19T10:30:52.353Z,136.63
2019-02-19T10:33:25.692Z,137.67
2019-02-19T10:35:56.821Z,142.73
2019-02-19T10:38:28.000Z,137.17
2019-02-19T10:41:00.052Z,140.70
2019-02-19T10:43:33.592Z,219.53
2019-02-19T10:46:06.109Z,149.70
2019-02-19T10:48:38.284Z,141.00
2019-02-19T10:51:11.240Z,1552.45
2019-02-19T10:53:42.852Z,296.47
2019-02-19T10:56:16.180Z,158.83
2019-02-19T10:58:47.344Z,153.27
2019-02-19T11:01:18.718Z,236.03
2019-02-19T11:03:51.616Z,137.17
2019-02-19T11:06:24.043Z,231.87
2019-02-19T11:08:55.265Z,117.77
2019-02-19T11:11:27.679Z,119.70
2019-02-19T11:13:59.617Z,101.40
2019-02-19T11:16:33.843Z,102.33
2019-02-19T11:19:06.372Z,101.63
2019-02-19T11:21:37.749Z,158.10
2019-02-19T11:24:09.660Z,112.23
2019-02-19T11:26:40.712Z,93.17
2019-02-19T11:29:11.820Z,83.63
2019-02-19T11:31:42.932Z,90.37
2019-02-19T11:34:14.812Z,76.03
2019-02-19T11:36:46.499Z,127.90
2019-02-19T11:39:18.138Z,67.70
2019-02-19T11:41:50.598Z,92.93
2019-02-19T11:44:23.115Z,79.47
2019-02-19T11:46:54.422Z,80.10
2019-02-19T11:49:26.623Z,104.13
2019-02-19T11:51:58.450Z,72.40
2019-02-19T11:54:30.341Z,70.13
2019-02-19T11:57:02.477Z,102.40
2019-02-19T11:59:35.407Z,92.97
2019-02-19T12:02:14.537Z,123.83
2019-02-19T12:04:47.066Z,94.30
2019-02-19T12:07:19.729Z,77.93
2019-02-19T12:09:52.264Z,94.37
2019-02-19T12:12:23.805Z,116.27
2019-02-19T12:14:55.857Z,112.47
2019-02-19T12:17:27.042Z,69.73
2019-02-19T12:19:58.171Z,441.57
2019-02-19T12:22:30.272Z,100.93
2019-02-19T12:25:02.498Z,96.93
2019-02-19T12:27:35.656Z,80.47
2019-02-19T12:30:09.144Z,109.03
2019-02-19T12:32:40.424Z,123.83
2019-02-19T12:35:12.496Z,133.70
2019-02-19T12:37:44.032Z,115.57
2019-02-19T12:40:15.318Z,124.63
2019-02-19T12:42:47.545Z,135.10
2019-02-19T12:45:20.101Z,102.43
2019-02-19T12:47:51.682Z,99.57
2019-02-19T12:50:22.797Z,91.00
2019-02-19T12:52:53.983Z,79.90
2019-02-19T12:55:26.201Z,80.60
2019-02-19T12:57:57.479Z,83.23
2019-02-19T13:00:28.619Z,73.83
2019-02-19T13:03:00.480Z,157.33
2019-02-19T13:05:32.236Z,81.80
2019-02-19T13:08:04.562Z,80.50
2019-02-19T13:10:37.721Z,81.13
2019-02-19T13:13:10.047Z,65.07
2019-02-19T13:15:42.536Z,73.50
2019-02-19T13:18:14.421Z,100.47
2019-02-19T13:20:45.588Z,63.40
2019-02-19T13:23:16.663Z,76.73
2019-02-19T13:25:49.431Z,66.67
2019-02-19T13:28:21.661Z,94.97
2019-02-19T13:30:53.423Z,58.90
2019-02-19T13:33:25.791Z,62.30
2019-02-19T13:35:56.919Z,70.27
2019-02-19T13:38:29.436Z,59.40
2019-02-19T13:41:00.799Z,83.67
2019-02-19T13:43:31.901Z,66.00
2019-02-19T13:46:03.215Z,61.00
2019-02-19T13:48:34.341Z,65.77
2019-02-19T13:51:05.545Z,52.63
2019-02-19T13:53:44.892Z,84.27
2019-02-19T13:56:16.029Z,65.03
2019-02-19T13:58:47.159Z,97.37
2019-02-19T14:01:18.338Z,90.40
2019-02-19T14:03:49.523Z,118.60
2019-02-19T14:06:20.667Z,83.33
2019-02-19T14:08:52.011Z,86.97
2019-02-19T14:11:23.161Z,72.97
2019-02-19T14:14:12.359Z,74.00
2019-02-19T14:16:56.276Z,78.70
2019-02-19T14:19:54.209Z,76.00
2019-02-19T14:22:51.614Z,66.10
2019-02-19T14:25:48.428Z,63.70
2019-02-19T14:28:37.288Z,80.87
2019-02-19T14:31:26.805Z,63.53
2019-02-19T14:34:16.655Z,92.13
2019-02-19T14:37:21.654Z,63.90
2019-02-19T14:40:10.480Z,56.20
2019-02-19T14:43:03.843Z,61.57
2019-02-19T14:45:48.160Z,77.53
2019-02-19T14:48:41.821Z,67.07
2019-02-19T14:51:24.119Z,59.70
2019-02-19T14:54:32.475Z,69.17
2019-02-19T14:57:21.389Z,52.80
2019-02-19T15:00:17.329Z,58.30
2019-02-19T15:03:07.978Z,55.83
2019-02-19T15:05:56.659Z,42.60
2019-02-19T15:08:42.531Z,58.47
2019-02-19T15:11:32.382Z,53.73
2019-02-19T15:14:15.049Z,83.77
2019-02-19T15:17:23.519Z,100.07
2019-02-19T15:20:05.768Z,74.73
2019-02-19T15:22:54.833Z,82.10
2019-02-19T15:25:56.981Z,112.97
2019-02-19T15:28:38.003Z,105.53
2019-02-19T15:31:27.700Z,149.57
2019-02-19T15:34:32.783Z,80.83
2019-02-19T15:37:28.752Z,59.07
2019-02-19T15:40:33.954Z,61.80
2019-02-19T15:43:26.888Z,77.13
2019-02-19T15:46:15.863Z,70.73
2019-02-19T15:49:09.026Z,98.10
2019-02-19T15:51:48.267Z,86.60
2019-02-19T15:54:33.620Z,101.20
2019-02-19T15:57:14.266Z,211.63
2019-02-19T16:00:02.783Z,207.80
2019-02-19T16:02:51.629Z,130.03
2019-02-19T16:05:41.546Z,276.73
2019-02-19T16:08:34.976Z,116.30
2019-02-19T16:11:15.660Z,117.70
2019-02-19T16:14:16.419Z,129.50
2019-02-19T16:17:00.904Z,182.63
2019-02-19T16:19:46.595Z,283.07
2019-02-19T16:22:29.261Z,217.00
2019-02-19T16:25:28.745Z,264.17
2019-02-19T16:28:29.706Z,312.53
2019-02-19T16:31:10.266Z,288.97
2019-02-19T16:33:51.959Z,284.80
2019-02-19T16:36:43.257Z,313.57
2019-02-19T16:39:32.301Z,318.37
2019-02-19T16:42:27.211Z,269.33
2019-02-19T16:45:17.614Z,218.07
2019-02-19T16:48:06.101Z,230.03
2019-02-19T16:51:12.424Z,219.70
2019-02-19T16:54:08.943Z,173.27
2019-02-19T16:56:49.767Z,166.53
2019-02-19T16:59:37.250Z,215.07
2019-02-19T17:02:18.238Z,174.90
2019-02-19T17:05:00.658Z,167.97
2019-02-19T17:08:05.835Z,182.37
2019-02-19T17:10:46.065Z,221.50
2019-02-19T17:13:47.199Z,220.43
2019-02-19T17:16:36.164Z,194.33
2019-02-19T17:19:29.925Z,216.50
2019-02-19T17:22:29.521Z,239.47
2019-02-19T17:25:19.493Z,259.27
2019-02-19T17:28:12.286Z,447.00
2019-02-19T17:31:14.533Z,359.07
2019-02-19T17:33:54.371Z,443.20
2019-02-19T17:36:56.634Z,452.50
2019-02-19T17:39:53.028Z,373.07
2019-02-19T17:42:37.362Z,477.27
2019-02-19T17:45:17.336Z,381.83
2019-02-19T17:48:05.656Z,371.27
2019-02-19T17:50:56.339Z,330.67
2019-02-19T17:53:47.166Z,334.93
2019-02-19T17:56:50.084Z,317.53
2019-02-19T17:59:39.196Z,329.93
2019-02-19T18:02:31.745Z,277.87
2019-02-19T18:05:28.168Z,251.07
2019-02-19T18:08:28.599Z,238.37
2019-02-19T18:11:18.315Z,293.03
2019-02-19T18:14:00.443Z,195.57
2019-02-19T18:16:44.841Z,202.30
2019-02-19T18:19:16.181Z,218.40
2019-02-19T18:21:49.776Z,257.00
2019-02-19T18:24:21.678Z,224.37
2019-02-19T18:26:53.532Z,245.30
2019-02-19T18:29:24.640Z,248.17
2019-02-19T18:31:56.075Z,269.37
2019-02-19T18:34:27.171Z,393.17
2019-02-19T18:36:58.804Z,246.30
2019-02-19T18:39:30.158Z,288.37
2019-02-19T18:42:01.751Z,265.83
2019-02-19T18:44:34.047Z,228.97
2019-02-19T18:47:06.114Z,440.87
2019-02-19T18:49:37.295Z,283.07
2019-02-19T18:52:08.435Z,262.47
2019-02-19T18:54:40.612Z,306.60
2019-02-19T18:57:12.546Z,547.73
2019-02-19T18:59:46.622Z,251.77
2019-02-19T19:02:19.421Z,315.70
2019-02-19T19:04:51.399Z,278.53
2019-02-19T19:07:23.369Z,321.10
2019-02-19T19:09:54.891Z,272.00
2019-02-19T19:12:26.209Z,254.13
2019-02-19T19:15:00.387Z,302.37
2019-02-19T19:17:32.491Z,248.83
2019-02-19T19:20:04.665Z,409.40
2019-02-19T19:22:36.723Z,235.00
2019-02-19T19:25:08.636Z,253.47
2019-02-19T19:27:40.415Z,381.27
2019-02-19T19:30:15.509Z,252.53
2019-02-19T19:32:46.736Z,319.40
2019-02-19T19:35:17.922Z,304.43
2019-02-19T19:37:52.532Z,348.60
2019-02-19T19:40:24.528Z,354.40
2019-02-19T19:42:55.636Z,272.70
2019-02-19T19:45:27.036Z,307.30
2019-02-19T19:47:58.243Z,295.53
2019-02-19T19:50:29.835Z,495.43
2019-02-19T19:53:02.361Z,320.87
2019-02-19T19:55:36.137Z,588.57
2019-02-19T19:58:07.880Z,385.37
2019-02-19T20:00:39.114Z,325.97
2019-02-19T20:03:10.216Z,283.37
2019-02-19T20:05:41.556Z,442.43
2019-02-19T20:08:12.675Z,494.53
2019-02-19T20:10:44.858Z,328.00
2019-02-19T20:13:19.434Z,1504.47
2019-02-19T20:15:50.820Z,345.23
2019-02-19T20:18:23.282Z,398.50
2019-02-19T20:20:55.037Z,327.37
2019-02-19T20:23:27.257Z,280.87
2019-02-19T20:26:03.409Z,377.83
2019-02-19T20:28:36.006Z,317.40
2019-02-19T20:31:08.384Z,290.70
2019-02-19T20:33:40.285Z,501.70
2019-02-19T20:36:13.637Z,503.63
2019-02-19T20:38:46.996Z,296.83
2019-02-19T20:41:19.316Z,355.57
2019-02-19T20:43:51.305Z,344.27
2019-02-19T20:46:23.487Z,325.90
2019-02-19T20:48:56.033Z,319.70
2019-02-19T20:51:36.182Z,334.83
2019-02-19T20:54:02.123Z,238.67
2019-02-19T20:56:34.935Z,307.57
2019-02-19T20:59:06.909Z,289.63
2019-02-19T21:01:39.019Z,627.67
2019-02-19T21:04:11.466Z,243.17
2019-02-19T21:06:43.696Z,301.07
2019-02-19T21:09:15.793Z,272.83
2019-02-19T21:11:49.259Z,244.53
2019-02-19T21:14:22.382Z,226.23
2019-02-19T21:16:56.291Z,274.03
2019-02-19T21:19:28.909Z,297.63
2019-02-19T21:22:00.321Z,301.63
2019-02-19T21:24:32.645Z,304.20
2019-02-19T21:27:04.440Z,420.27
2019-02-19T21:29:37.193Z,409.60
2019-02-19T21:32:10.935Z,364.20
2019-02-19T21:34:42.160Z,436.03
2019-02-19T21:37:14.005Z,365.20
2019-02-19T21:39:46.883Z,357.90
2019-02-19T21:42:19.954Z,338.37
2019-02-19T21:44:52.672Z,404.60
2019-02-19T21:47:26.211Z,395.83
2019-02-19T21:50:01.447Z,336.30
2019-02-19T21:52:38.980Z,295.13
2019-02-19T21:55:12.119Z,298.43
2019-02-19T21:57:45.869Z,420.67
2019-02-19T22:00:19.486Z,281.43
2019-02-19T22:02:52.392Z,281.80
2019-02-19T22:05:23.688Z,288.10
2019-02-19T22:07:55.332Z,356.97
2019-02-19T22:10:30.442Z,285.27
2019-02-19T22:13:02.115Z,297.90
2019-02-19T22:15:33.509Z,289.37
2019-02-19T22:18:05.970Z,382.63
2019-02-19T22:20:54.060Z,315.03
2019-02-19T22:23:27.654Z,415.47
2019-02-19T22:26:02.290Z,333.83
2019-02-19T22:28:35.783Z,287.90
2019-02-19T22:31:09.175Z,427.30
2019-02-19T22:33:40.360Z,314.17
2019-02-19T22:36:12.290Z,342.17
2019-02-19T22:38:46.881Z,578.87
2019-02-19T22:41:22.799Z,395.87
2019-02-19T22:43:53.598Z,349.00
2019-02-19T22:46:26.770Z,376.63
2019-02-19T22:48:58.497Z,332.83
2019-02-19T22:51:30.580Z,346.47
2019-02-19T22:54:26.499Z,310.53
2019-02-19T22:56:59.571Z,384.67
2019-02-19T22:59:32.236Z,491.00
2019-02-19T23:02:09.832Z,306.70
2019-02-19T23:04:42.039Z,510.90
2019-02-19T23:07:14.675Z,445.93
2019-02-19T23:09:47.293Z,348.60
2019-02-19T23:12:19.586Z,298.67
2019-02-19T23:14:51.033Z,324.50
2019-02-19T23:17:22.806Z,645.90
2019-02-19T23:19:54.989Z,289.40
2019-02-19T23:22:26.094Z,358.00
2019-02-19T23:24:58.040Z,402.57
2019-02-19T23:27:29.897Z,423.67
2019-02-19T23:30:01.926Z,298.40
2019-02-19T23:32:34.470Z,319.77
2019-02-19T23:35:16.027Z,307.63
2019-02-19T23:37:48.346Z,298.23
2019-02-19T23:40:19.971Z,335.50
2019-02-19T23:42:51.172Z,395.43
2019-02-19T23:45:22.210Z,378.73
2019-02-19T23:47:54.845Z,311.53
2019-02-19T23:50:26.511Z,326.63
2019-02-19T23:52:57.628Z,519.87
2019-02-19T23:55:28.936Z,309.43
2019-02-19T23:58:02.134Z,446.20
